Time;durP1;ratioP1;P1;durP2;ratioP2;P2;SDS_P1;SDS_P2;PMS_P1;PMS_P2;Temp;Humidity;BMP_temperature;BMP_pressure;BME280_temperature;BME280_humidity;BME280_pressure;Samples;Min_cycle;Max_cycle;Signal;HPM_P1;HPM_P2
2022/09/16 00:02:20;;;;;;;11.90;3.40;;;;;;;;;;4405618;32;20595;-86
2022/09/16 00:04:46;;;;;;;8.30;2.85;;;;;;;;;;4406419;32;20301;-88
2022/09/16 00:07:13;;;;;;;14.13;4.00;;;;;;;;;;4392617;32;20275;-87
2022/09/16 00:09:43;;;;;;;17.15;3.03;;;;;;;;;;4391609;32;20696;-89
2022/09/16 00:12:12;;;;;;;17.60;4.30;;;;;;;;;;4390362;32;20229;-89
2022/09/16 00:14:39;;;;;;;8.85;3.55;;;;;;;;;;4390168;32;20246;-87
2022/09/16 00:17:07;;;;;;;12.05;3.17;;;;;;;;;;4390068;32;20237;-89
2022/09/16 00:19:34;;;;;;;18.77;2.85;;;;;;;;;;4389695;32;20253;-87
2022/09/16 00:22:01;;;;;;;8.20;2.05;;;;;;;;;;4390959;32;20238;-87
2022/09/16 00:24:28;;;;;;;8.65;2.90;;;;;;;;;;4376223;32;20268;-89
2022/09/16 00:26:55;;;;;;;8.10;3.08;;;;;;;;;;4394074;32;20304;-91
2022/09/16 00:29:22;;;;;;;10.02;2.25;;;;;;;;;;4404224;32;20284;-91
2022/09/16 00:31:49;;;;;;;9.32;2.60;;;;;;;;;;4405221;32;20327;-87
2022/09/16 00:34:17;;;;;;;8.40;2.78;;;;;;;;;;4404950;32;20221;-88
2022/09/16 00:36:44;;;;;;;14.45;3.37;;;;;;;;;;4404250;32;20625;-87
2022/09/16 00:39:11;;;;;;;10.55;3.95;;;;;;;;;;4404760;32;20226;-88
2022/09/16 00:41:38;;;;;;;9.43;2.97;;;;;;;;;;4405027;32;20249;-90
2022/09/16 00:44:07;;;;;;;6.45;3.10;;;;;;;;;;4391118;32;20244;-89
2022/09/16 00:46:42;;;;;;;18.40;3.92;;;;;;;;;;4404811;32;20272;-91
2022/09/16 00:49:20;;;;;;;16.33;3.90;;;;;;;;;;4405050;32;20250;-90
2022/09/16 00:51:53;;;;;;;11.60;4.10;;;;;;;;;;4389789;32;20246;-88
2022/09/16 00:54:21;;;;;;;17.08;4.68;;;;;;;;;;4391746;32;20324;-87
2022/09/16 00:56:52;;;;;;;13.70;4.20;;;;;;;;;;4404182;32;20295;-88
2022/09/16 00:59:27;;;;;;;15.88;3.87;;;;;;;;;;4390815;32;20527;-87
2022/09/16 01:01:58;;;;;;;9.45;4.05;;;;;;;;;;4391999;32;20320;-91
2022/09/16 01:04:29;;;;;;;16.42;4.25;;;;;;;;;;4389986;32;20242;-90
2022/09/16 01:06:58;;;;;;;14.50;3.78;;;;;;;;;;4389264;32;20231;-90
2022/09/16 01:09:28;;;;;;;13.00;4.93;;;;;;;;;;4389496;32;20252;-91
2022/09/16 01:11:55;;;;;;;13.00;3.75;;;;;;;;;;4391973;32;20598;-86
2022/09/16 01:17:16;;;;;;;17.23;4.05;;;;;;;;;;4403471;32;20307;-88
2022/09/16 01:20:01;;;;;;;16.23;4.93;;;;;;;;;;4404162;32;20304;-90
2022/09/16 01:22:46;;;;;;;15.57;5.25;;;;;;;;;;4402941;32;20234;-88
2022/09/16 01:25:27;;;;;;;15.32;3.90;;;;;;;;;;4404212;32;20214;-89
2022/09/16 01:28:24;;;;;;;9.80;4.47;;;;;;;;;;4400749;32;20320;-91
2022/09/16 01:31:04;;;;;;;9.23;3.72;;;;;;;;;;4388346;32;20322;-89
2022/09/16 01:33:42;;;;;;;14.70;3.87;;;;;;;;;;4390902;32;20341;-86
2022/09/16 01:36:24;;;;;;;17.20;3.55;;;;;;;;;;4403799;32;20237;-88
2022/09/16 01:39:08;;;;;;;16.00;4.15;;;;;;;;;;4403881;32;20318;-89
2022/09/16 01:41:48;;;;;;;15.52;3.42;;;;;;;;;;4403655;32;20233;-89
2022/09/16 01:44:22;;;;;;;9.70;4.22;;;;;;;;;;4403324;32;20217;-87
2022/09/16 01:47:02;;;;;;;15.27;3.65;;;;;;;;;;4403462;32;20283;-89
2022/09/16 01:49:41;;;;;;;10.80;3.67;;;;;;;;;;4402132;32;20217;-86
2022/09/16 01:52:20;;;;;;;21.73;4.22;;;;;;;;;;4387384;32;20245;-90
2022/09/16 01:54:51;;;;;;;6.72;3.08;;;;;;;;;;4390292;32;20645;-90
2022/09/16 01:57:21;;;;;;;15.93;4.20;;;;;;;;;;4404321;32;20233;-87
2022/09/16 01:59:53;;;;;;;11.85;4.03;;;;;;;;;;4403597;32;20225;-87
2022/09/16 02:02:24;;;;;;;16.73;4.20;;;;;;;;;;4404832;32;20237;-88
2022/09/16 02:04:55;;;;;;;9.57;4.07;;;;;;;;;;4403545;32;20381;-89
2022/09/16 02:07:27;;;;;;;12.35;3.97;;;;;;;;;;4403437;32;20269;-91
2022/09/16 02:09:58;;;;;;;7.30;3.35;;;;;;;;;;4403522;32;20213;-89
2022/09/16 02:12:29;;;;;;;14.80;4.60;;;;;;;;;;4403062;32;20229;-83
2022/09/16 02:15:03;;;;;;;10.05;3.92;;;;;;;;;;4404349;32;20259;-90
2022/09/16 02:17:35;;;;;;;13.52;4.32;;;;;;;;;;4406230;32;20231;-85
2022/09/16 02:20:08;;;;;;;6.03;3.03;;;;;;;;;;4416139;32;20749;-83
2022/09/16 02:22:38;;;;;;;7.40;3.55;;;;;;;;;;4416582;32;20237;-83
2022/09/16 02:25:08;;;;;;;6.97;3.22;;;;;;;;;;4416135;32;20258;-86
2022/09/16 02:27:38;;;;;;;8.10;3.75;;;;;;;;;;4416284;32;20308;-84
2022/09/16 02:30:08;;;;;;;9.23;3.47;;;;;;;;;;4401883;32;20293;-85
2022/09/16 02:32:42;;;;;;;11.50;3.17;;;;;;;;;;4408325;32;20245;-89
2022/09/16 02:35:11;;;;;;;6.45;3.22;;;;;;;;;;4392219;32;20258;-87
2022/09/16 02:37:42;;;;;;;13.20;3.60;;;;;;;;;;4389478;32;20670;-89
2022/09/16 02:40:16;;;;;;;9.35;3.15;;;;;;;;;;4389013;32;20213;-86
2022/09/16 02:42:44;;;;;;;10.43;3.30;;;;;;;;;;4387729;32;20259;-90
2022/09/16 02:45:17;;;;;;;8.75;3.33;;;;;;;;;;4391020;32;20210;-91
2022/09/16 02:47:51;;;;;;;9.48;3.03;;;;;;;;;;4399573;32;20265;-89
2022/09/16 02:50:31;;;;;;;13.50;3.87;;;;;;;;;;4404620;32;20228;-91
2022/09/16 02:53:01;;;;;;;7.70;3.45;;;;;;;;;;4403960;32;20244;-90
2022/09/16 02:55:38;;;;;;;14.57;3.85;;;;;;;;;;4402995;32;20221;-90
2022/09/16 02:58:06;;;;;;;13.48;4.93;;;;;;;;;;4402837;32;20326;-89
2022/09/16 03:00:37;;;;;;;16.48;4.85;;;;;;;;;;4403420;32;20259;-91
2022/09/16 03:03:05;;;;;;;11.70;3.75;;;;;;;;;;4403222;32;20709;-88
2022/09/16 03:05:33;;;;;;;11.65;3.67;;;;;;;;;;4399573;32;20379;-90
2022/09/16 03:08:02;;;;;;;9.80;4.00;;;;;;;;;;4387824;32;20214;-91
2022/09/16 03:10:36;;;;;;;17.80;4.85;;;;;;;;;;4389960;32;20343;-88
2022/09/16 03:13:13;;;;;;;9.23;4.22;;;;;;;;;;4401231;32;20264;-89
2022/09/16 03:15:58;;;;;;;11.73;4.20;;;;;;;;;;4405988;32;20245;-91
2022/09/16 03:18:59;;;;;;;7.95;3.83;;;;;;;;;;4405734;32;20268;-90
2022/09/16 03:21:32;;;;;;;10.57;4.30;;;;;;;;;;4405656;32;20801;-87
2022/09/16 03:24:10;;;;;;;17.37;4.82;;;;;;;;;;4391029;32;20689;-92
2022/09/16 03:26:46;;;;;;;18.48;10.55;;;;;;;;;;4403666;32;20572;-87
2022/09/16 03:29:19;;;;;;;13.00;4.93;;;;;;;;;;4400993;32;20243;-89
2022/09/16 03:31:51;;;;;;;19.80;4.78;;;;;;;;;;4373724;32;20687;-91
2022/09/16 03:34:27;;;;;;;20.37;5.68;;;;;;;;;;4394867;32;20675;-89
2022/09/16 03:36:59;;;;;;;11.45;5.35;;;;;;;;;;4404025;32;20263;-89
2022/09/16 03:39:26;;;;;;;15.80;5.03;;;;;;;;;;4403931;32;20213;-88
2022/09/16 03:41:55;;;;;;;23.87;4.65;;;;;;;;;;4403359;32;20217;-88
2022/09/16 03:44:31;;;;;;;19.00;3.90;;;;;;;;;;4402724;32;20336;-88
2022/09/16 03:46:58;;;;;;;25.02;3.85;;;;;;;;;;4403147;32;20635;-88
2022/09/16 03:49:27;;;;;;;17.12;4.47;;;;;;;;;;4389731;32;20379;-88
2022/09/16 03:51:56;;;;;;;18.10;4.80;;;;;;;;;;4402840;32;20650;-87
2022/09/16 03:54:23;;;;;;;11.32;4.00;;;;;;;;;;4405303;32;20245;-90
2022/09/16 03:56:50;;;;;;;27.13;4.82;;;;;;;;;;4404618;32;20217;-87
2022/09/16 03:59:19;;;;;;;14.30;4.28;;;;;;;;;;4404518;32;20206;-88
2022/09/16 04:01:47;;;;;;;18.12;4.20;;;;;;;;;;4405433;32;20263;-89
2022/09/16 04:04:14;;;;;;;14.50;4.25;;;;;;;;;;4405312;32;20229;-88
2022/09/16 04:06:43;;;;;;;18.20;5.40;;;;;;;;;;4404961;32;20896;-88
2022/09/16 04:09:12;;;;;;;14.98;7.12;;;;;;;;;;4397803;32;20260;-89
2022/09/16 04:11:40;;;;;;;14.73;5.78;;;;;;;;;;4391956;32;20253;-89
2022/09/16 04:14:08;;;;;;;22.23;6.47;;;;;;;;;;4403878;32;20331;-87
2022/09/16 04:16:37;;;;;;;20.15;7.07;;;;;;;;;;4404955;32;20244;-87
2022/09/16 04:19:05;;;;;;;14.45;4.80;;;;;;;;;;4405204;32;20233;-87
2022/09/16 04:21:33;;;;;;;20.48;5.22;;;;;;;;;;4391199;32;20252;-89
2022/09/16 04:24:02;;;;;;;16.65;4.80;;;;;;;;;;4405343;32;20730;-88
2022/09/16 04:26:28;;;;;;;20.40;6.12;;;;;;;;;;4405001;32;20588;-86
2022/09/16 04:28:55;;;;;;;19.10;5.12;;;;;;;;;;4405833;32;20251;-89
2022/09/16 04:31:22;;;;;;;21.70;6.18;;;;;;;;;;4406920;32;20321;-87
2022/09/16 04:33:52;;;;;;;27.00;5.90;;;;;;;;;;4406773;32;20383;-90
2022/09/16 04:36:20;;;;;;;22.67;7.07;;;;;;;;;;4404719;32;20241;-91
2022/09/16 04:38:48;;;;;;;18.05;5.97;;;;;;;;;;4405056;32;20255;-89
2022/09/16 04:41:20;;;;;;;16.50;6.95;;;;;;;;;;4404561;32;20673;-86
2022/09/16 04:43:52;;;;;;;34.38;7.28;;;;;;;;;;4404680;32;20265;-91
2022/09/16 04:46:20;;;;;;;17.52;7.25;;;;;;;;;;4404197;32;20245;-86
2022/09/16 04:48:47;;;;;;;27.85;7.47;;;;;;;;;;4404321;32;20233;-90
2022/09/16 04:51:15;;;;;;;21.17;7.95;;;;;;;;;;4391534;32;20225;-85
2022/09/16 04:53:43;;;;;;;25.12;7.95;;;;;;;;;;4389564;32;20472;-92
2022/09/16 04:56:14;;;;;;;24.25;7.60;;;;;;;;;;4389151;32;20686;-89
2022/09/16 04:58:43;;;;;;;29.10;8.10;;;;;;;;;;4388278;32;20255;-90
2022/09/16 05:01:15;;;;;;;19.58;7.25;;;;;;;;;;4389959;32;20232;-90
2022/09/16 05:03:44;;;;;;;21.33;8.70;;;;;;;;;;4389507;32;20464;-91
2022/09/16 05:06:14;;;;;;;21.75;8.13;;;;;;;;;;4388920;32;20221;-90
2022/09/16 05:08:43;;;;;;;26.55;8.60;;;;;;;;;;4394514;32;20305;-85
2022/09/16 05:11:12;;;;;;;20.70;8.13;;;;;;;;;;4389243;32;20213;-88
2022/09/16 05:13:39;;;;;;;16.40;7.95;;;;;;;;;;4403345;32;20398;-87
2022/09/16 05:16:13;;;;;;;16.58;7.97;;;;;;;;;;4396638;32;20685;-88
2022/09/16 05:18:45;;;;;;;22.75;8.43;;;;;;;;;;4405481;32;20612;-85
2022/09/16 05:21:14;;;;;;;19.65;7.32;;;;;;;;;;4403903;32;20724;-87
2022/09/16 05:23:41;;;;;;;26.60;9.18;;;;;;;;;;4403776;32;20240;-85
2022/09/16 05:26:09;;;;;;;39.70;9.15;;;;;;;;;;4403759;32;20703;-84
2022/09/16 05:28:37;;;;;;;30.25;9.00;;;;;;;;;;4403154;32;20306;-84
2022/09/16 05:31:13;;;;;;;19.40;7.65;;;;;;;;;;4403888;32;20688;-85
2022/09/16 05:33:41;;;;;;;25.35;9.10;;;;;;;;;;4388846;32;20327;-84
2022/09/16 05:36:10;;;;;;;36.58;8.75;;;;;;;;;;4389161;32;20250;-83
2022/09/16 05:38:37;;;;;;;25.65;8.70;;;;;;;;;;4403049;32;20767;-80
2022/09/16 05:41:05;;;;;;;27.75;9.40;;;;;;;;;;4403345;32;20289;-79
2022/09/16 05:43:37;;;;;;;17.40;6.43;;;;;;;;;;4403329;32;20229;-84
2022/09/16 05:46:04;;;;;;;16.20;7.62;;;;;;;;;;4389191;32;20332;-84
2022/09/16 05:48:33;;;;;;;24.73;7.80;;;;;;;;;;4403275;32;20256;-82
2022/09/16 05:51:02;;;;;;;29.58;8.13;;;;;;;;;;4392683;32;20225;-83
2022/09/16 05:53:31;;;;;;;16.90;6.70;;;;;;;;;;4388547;32;20249;-81
2022/09/16 05:56:01;;;;;;;27.08;8.05;;;;;;;;;;4387796;32;20695;-82
2022/09/16 05:58:30;;;;;;;25.92;8.88;;;;;;;;;;4386414;32;20230;-80
2022/09/16 06:01:01;;;;;;;16.23;7.22;;;;;;;;;;4388885;32;20644;-84
2022/09/16 06:03:28;;;;;;;26.45;7.53;;;;;;;;;;4394106;32;20234;-81
2022/09/16 06:06:01;;;;;;;26.75;8.30;;;;;;;;;;4398366;32;20234;-81
2022/09/16 06:08:29;;;;;;;15.68;6.75;;;;;;;;;;4408663;32;20314;-80
2022/09/16 06:10:58;;;;;;;22.52;7.10;;;;;;;;;;4412245;32;20214;-81
2022/09/16 06:13:25;;;;;;;20.05;6.03;;;;;;;;;;4410246;32;20285;-83
2022/09/16 06:15:54;;;;;;;22.35;5.85;;;;;;;;;;4401198;32;20269;-78
2022/09/16 06:18:23;;;;;;;28.42;6.87;;;;;;;;;;4401655;32;20601;-82
2022/09/16 06:20:50;;;;;;;16.20;5.12;;;;;;;;;;4402169;32;20248;-83
2022/09/16 06:23:18;;;;;;;17.67;5.50;;;;;;;;;;4402451;32;20249;-82
2022/09/16 06:25:47;;;;;;;27.20;6.10;;;;;;;;;;4402833;32;20237;-82
2022/09/16 06:28:15;;;;;;;27.00;5.95;;;;;;;;;;4401905;32;20229;-83
2022/09/16 06:30:42;;;;;;;13.02;5.62;;;;;;;;;;4402442;32;20300;-84
2022/09/16 06:33:11;;;;;;;13.38;5.30;;;;;;;;;;4402190;32;20245;-83
2022/09/16 06:35:38;;;;;;;22.02;5.00;;;;;;;;;;4375451;32;20252;-83
2022/09/16 06:38:05;;;;;;;20.30;5.85;;;;;;;;;;4386947;32;20693;-82
2022/09/16 06:40:34;;;;;;;13.48;4.20;;;;;;;;;;4387245;32;20260;-81
2022/09/16 06:43:01;;;;;;;17.83;4.62;;;;;;;;;;4386852;32;20345;-81
2022/09/16 06:45:29;;;;;;;19.17;4.80;;;;;;;;;;4396366;32;20235;-82
2022/09/16 06:47:59;;;;;;;19.15;5.05;;;;;;;;;;4402089;32;20658;-82
2022/09/16 06:50:26;;;;;;;14.85;4.35;;;;;;;;;;4400675;32;20241;-82
2022/09/16 06:52:53;;;;;;;14.77;4.43;;;;;;;;;;4407761;32;20543;-84
2022/09/16 06:55:20;;;;;;;14.15;3.58;;;;;;;;;;4414345;32;20322;-83
2022/09/16 06:57:53;;;;;;;21.52;4.50;;;;;;;;;;4423864;32;20282;-92
2022/09/16 07:00:20;;;;;;;14.20;3.75;;;;;;;;;;4419212;32;20270;-91
2022/09/16 07:02:47;;;;;;;15.88;4.87;;;;;;;;;;4414271;32;20709;-85
2022/09/16 07:05:14;;;;;;;20.00;4.85;;;;;;;;;;4402549;32;20243;-93
2022/09/16 07:07:43;;;;;;;18.83;4.72;;;;;;;;;;4389581;32;20237;-84
2022/09/16 07:10:10;;;;;;;13.20;4.30;;;;;;;;;;4393061;32;20224;-92
2022/09/16 07:12:36;;;;;;;14.55;5.10;;;;;;;;;;4404367;32;20349;-90
2022/09/16 07:15:06;;;;;;;13.10;4.03;;;;;;;;;;4404509;32;20288;-84
2022/09/16 07:17:33;;;;;;;21.90;4.20;;;;;;;;;;4418837;32;20336;-86
2022/09/16 07:20:03;;;;;;;25.08;5.07;;;;;;;;;;4419537;32;20217;-89
2022/09/16 07:22:31;;;;;;;27.60;5.32;;;;;;;;;;4419628;32;20325;-89
2022/09/16 07:24:58;;;;;;;21.00;5.05;;;;;;;;;;4418766;32;20689;-89
2022/09/16 07:27:28;;;;;;;17.92;3.95;;;;;;;;;;4418127;32;20669;-87
2022/09/16 07:29:55;;;;;;;20.52;4.95;;;;;;;;;;4400453;32;20248;-83
2022/09/16 07:32:24;;;;;;;25.77;5.03;;;;;;;;;;4390140;32;20241;-85
2022/09/16 07:34:52;;;;;;;20.45;5.03;;;;;;;;;;4394143;32;20400;-90
2022/09/16 07:37:21;;;;;;;17.60;4.85;;;;;;;;;;4390144;32;20303;-83
2022/09/16 07:39:49;;;;;;;18.60;4.68;;;;;;;;;;4401440;32;20628;-86
2022/09/16 07:42:16;;;;;;;19.77;4.43;;;;;;;;;;4405789;32;20255;-82
2022/09/16 07:44:44;;;;;;;15.80;5.55;;;;;;;;;;4406004;32;20301;-90
2022/09/16 07:47:11;;;;;;;21.05;4.75;;;;;;;;;;4406169;32;20265;-86
2022/09/16 07:49:39;;;;;;;19.67;5.15;;;;;;;;;;4404676;32;20278;-87
2022/09/16 07:52:08;;;;;;;15.52;4.00;;;;;;;;;;4405796;32;20280;-89
2022/09/16 07:54:35;;;;;;;21.87;5.00;;;;;;;;;;4405831;32;20352;-88
2022/09/16 07:57:03;;;;;;;16.85;4.68;;;;;;;;;;4403146;32;20365;-90
2022/09/16 07:59:30;;;;;;;19.02;3.70;;;;;;;;;;4364048;32;20283;-85
2022/09/16 08:01:57;;;;;;;16.98;4.50;;;;;;;;;;4390226;32;20397;-90
2022/09/16 08:04:25;;;;;;;14.55;4.70;;;;;;;;;;4390528;32;20289;-88
2022/09/16 08:06:53;;;;;;;25.67;4.90;;;;;;;;;;4390275;32;20246;-91
2022/09/16 08:09:21;;;;;;;14.57;3.20;;;;;;;;;;4390974;32;20252;-90
2022/09/16 08:11:51;;;;;;;37.72;4.22;;;;;;;;;;4392874;32;20300;-88
2022/09/16 08:14:20;;;;;;;15.38;3.62;;;;;;;;;;4405396;32;20222;-91
2022/09/16 08:16:50;;;;;;;15.18;3.90;;;;;;;;;;4405280;32;20245;-87
2022/09/16 08:19:19;;;;;;;48.92;19.65;;;;;;;;;;4405518;32;20262;-88
2022/09/16 08:21:49;;;;;;;35.08;13.07;;;;;;;;;;4404439;32;20755;-88
2022/09/16 08:24:19;;;;;;;30.25;7.55;;;;;;;;;;4405360;32;20209;-87
2022/09/16 08:26:47;;;;;;;19.05;4.97;;;;;;;;;;4391067;32;20361;-89
2022/09/16 08:29:15;;;;;;;17.85;4.50;;;;;;;;;;4405500;32;20280;-90
2022/09/16 08:31:43;;;;;;;15.73;4.00;;;;;;;;;;4391476;32;20261;-88
2022/09/16 08:34:10;;;;;;;11.98;3.85;;;;;;;;;;4405384;32;20249;-89
2022/09/16 08:36:39;;;;;;;10.48;3.90;;;;;;;;;;4405180;32;20260;-88
2022/09/16 08:39:06;;;;;;;25.58;5.57;;;;;;;;;;4404107;32;20675;-87
2022/09/16 08:41:49;;;;;;;18.62;4.55;;;;;;;;;;4390331;32;20770;-90
2022/09/16 08:44:29;;;;;;;11.68;3.97;;;;;;;;;;4404703;32;20213;-89
2022/09/16 08:46:58;;;;;;;17.00;4.43;;;;;;;;;;4403810;32;20229;-88
2022/09/16 08:49:33;;;;;;;14.57;4.68;;;;;;;;;;4403263;32;20244;-88
2022/09/16 08:52:06;;;;;;;21.05;4.95;;;;;;;;;;4389226;32;20257;-85
2022/09/16 08:54:44;;;;;;;19.50;5.15;;;;;;;;;;4376073;32;20329;-90
2022/09/16 08:57:18;;;;;;;28.73;4.22;;;;;;;;;;4390354;32;20357;-86
2022/09/16 08:59:52;;;;;;;22.20;5.72;;;;;;;;;;4376640;32;20289;-84
2022/09/16 09:02:41;;;;;;;17.62;4.93;;;;;;;;;;4390273;32;20549;-89
2022/09/16 09:05:17;;;;;;;21.98;6.35;;;;;;;;;;4391233;32;20615;-90
2022/09/16 09:07:55;;;;;;;12.27;5.07;;;;;;;;;;4406110;32;20655;-85
2022/09/16 09:10:33;;;;;;;18.33;5.78;;;;;;;;;;4405312;32;20758;-91
2022/09/16 09:13:12;;;;;;;17.23;5.43;;;;;;;;;;4405368;32;20233;-89
2022/09/16 09:15:44;;;;;;;21.42;5.25;;;;;;;;;;4405358;32;20302;-90
2022/09/16 09:18:33;;;;;;;12.63;4.93;;;;;;;;;;4405361;32;20325;-90
2022/09/16 09:21:13;;;;;;;18.00;4.10;;;;;;;;;;4403721;32;20436;-90
2022/09/16 09:24:01;;;;;;;19.15;5.65;;;;;;;;;;4404249;32;20597;-86
2022/09/16 09:26:33;;;;;;;13.13;4.68;;;;;;;;;;4378604;32;20253;-90
2022/09/16 09:29:23;;;;;;;21.90;4.78;;;;;;;;;;4404920;32;20271;-91
2022/09/16 09:31:59;;;;;;;18.52;4.45;;;;;;;;;;4404612;32;20265;-90
2022/09/16 09:34:38;;;;;;;15.70;4.45;;;;;;;;;;4396330;32;20256;-87
2022/09/16 09:37:23;;;;;;;18.25;6.82;;;;;;;;;;4389639;32;20384;-89
2022/09/16 09:40:00;;;;;;;19.08;5.70;;;;;;;;;;4399884;32;20789;-89
2022/09/16 09:42:32;;;;;;;17.80;5.03;;;;;;;;;;4404432;32;20256;-89
2022/09/16 09:45:04;;;;;;;22.52;5.07;;;;;;;;;;4404502;32;20281;-92
2022/09/16 09:47:34;;;;;;;18.45;5.43;;;;;;;;;;4404200;32;20218;-87
2022/09/16 09:50:13;;;;;;;19.77;5.85;;;;;;;;;;4399635;32;20234;-86
2022/09/16 09:52:46;;;;;;;13.27;3.90;;;;;;;;;;4389229;32;20323;-88
2022/09/16 09:55:17;;;;;;;16.05;4.10;;;;;;;;;;4389037;32;20650;-91
2022/09/16 09:58:03;;;;;;;16.25;3.85;;;;;;;;;;4388765;32;20597;-91
2022/09/16 10:00:32;;;;;;;19.83;4.32;;;;;;;;;;4388921;32;20245;-88
2022/09/16 10:03:06;;;;;;;17.45;4.07;;;;;;;;;;4389085;32;20210;-89
2022/09/16 10:05:41;;;;;;;37.78;4.25;;;;;;;;;;4395203;32;20237;-93
2022/09/16 10:08:17;;;;;;;26.65;3.50;;;;;;;;;;4404311;32;20240;-93
2022/09/16 10:10:49;;;;;;;9.02;3.40;;;;;;;;;;4403483;32;20312;-92
2022/09/16 10:13:18;;;;;;;17.52;4.15;;;;;;;;;;4403706;32;20784;-88
2022/09/16 10:15:47;;;;;;;13.13;3.40;;;;;;;;;;4403693;32;20825;-90
2022/09/16 10:18:24;;;;;;;11.30;2.83;;;;;;;;;;4403633;32;20229;-90
2022/09/16 10:20:59;;;;;;;6.35;2.12;;;;;;;;;;4404244;32;20343;-91
2022/09/16 10:23:27;;;;;;;16.70;3.08;;;;;;;;;;4390499;32;20324;-91
2022/09/16 10:26:07;;;;;;;10.10;3.10;;;;;;;;;;4403333;32;20266;-84
2022/09/16 10:28:35;;;;;;;13.88;2.97;;;;;;;;;;4403092;32;20228;-88
2022/09/16 10:31:08;;;;;;;9.88;2.83;;;;;;;;;;4402910;32;20634;-91
2022/09/16 10:33:40;;;;;;;8.57;2.10;;;;;;;;;;4403008;32;20245;-90
2022/09/16 10:36:09;;;;;;;5.95;2.08;;;;;;;;;;4403044;32;20257;-89
2022/09/16 10:38:40;;;;;;;10.60;2.90;;;;;;;;;;4402699;32;20356;-88
2022/09/16 10:41:09;;;;;;;14.70;3.28;;;;;;;;;;4402625;32;20271;-85
2022/09/16 10:43:39;;;;;;;14.75;2.92;;;;;;;;;;4402610;32;20333;-84
2022/09/16 10:46:07;;;;;;;9.65;1.80;;;;;;;;;;4402399;32;20350;-91
2022/09/16 10:48:35;;;;;;;6.65;2.33;;;;;;;;;;4391015;32;20239;-90
2022/09/16 10:51:04;;;;;;;5.55;2.17;;;;;;;;;;4399319;32;20613;-92
2022/09/16 10:53:33;;;;;;;9.40;2.62;;;;;;;;;;4404914;32;20213;-88
2022/09/16 10:56:02;;;;;;;8.60;2.40;;;;;;;;;;4388867;32;20318;-90
2022/09/16 10:58:29;;;;;;;3.08;1.80;;;;;;;;;;4390279;32;20277;-92
2022/09/16 11:01:10;;;;;;;5.22;2.22;;;;;;;;;;4403079;32;20233;-90
2022/09/16 11:04:06;;;;;;;7.15;2.30;;;;;;;;;;4405220;32;20266;-88
2022/09/16 11:06:50;;;;;;;7.78;1.60;;;;;;;;;;4396635;32;20296;-92
2022/09/16 11:09:26;;;;;;;2.55;1.52;;;;;;;;;;4391086;32;20222;-91
2022/09/16 11:12:11;;;;;;;6.37;2.17;;;;;;;;;;4380970;32;20594;-90
2022/09/16 11:14:49;;;;;;;3.50;1.45;;;;;;;;;;4422642;32;20202;-84
2022/09/16 11:17:31;;;;;;;5.82;1.95;;;;;;;;;;4421245;32;20297;-85
2022/09/16 11:20:29;;;;;;;6.47;3.25;;;;;;;;;;4415149;32;20259;-90
2022/09/16 11:23:01;;;;;;;6.60;2.50;;;;;;;;;;4405805;32;20284;-87
2022/09/16 11:25:42;;;;;;;6.72;1.75;;;;;;;;;;4391440;32;20209;-91
2022/09/16 11:28:24;;;;;;;8.02;2.37;;;;;;;;;;4391725;32;20555;-90
2022/09/16 11:30:59;;;;;;;4.43;1.70;;;;;;;;;;4385208;32;20237;-91
2022/09/16 11:33:39;;;;;;;4.10;1.90;;;;;;;;;;4414001;32;20377;-89
2022/09/16 11:36:20;;;;;;;5.15;1.98;;;;;;;;;;4390795;32;20378;-91
2022/09/16 11:39:03;;;;;;;9.40;2.00;;;;;;;;;;4391691;32;20240;-83
2022/09/16 11:41:34;;;;;;;4.57;1.95;;;;;;;;;;4377761;32;20683;-91
2022/09/16 11:44:31;;;;;;;6.25;1.92;;;;;;;;;;4404951;32;20647;-89
2022/09/16 11:47:27;;;;;;;8.10;2.00;;;;;;;;;;4401013;32;20299;-90
2022/09/16 11:50:08;;;;;;;12.13;2.55;;;;;;;;;;4401312;32;20277;-93
2022/09/16 11:52:56;;;;;;;5.40;2.03;;;;;;;;;;4389976;32;20265;-88
2022/09/16 11:55:34;;;;;;;15.40;3.12;;;;;;;;;;4389429;32;20438;-81
2022/09/16 11:58:05;;;;;;;6.05;2.12;;;;;;;;;;4389589;32;20287;-90
2022/09/16 12:00:33;;;;;;;9.00;2.97;;;;;;;;;;4389852;32;20254;-85
2022/09/16 12:03:08;;;;;;;15.02;2.28;;;;;;;;;;4389368;32;20341;-87
2022/09/16 12:05:41;;;;;;;13.20;1.83;;;;;;;;;;4389798;32;20245;-88
2022/09/16 12:08:21;;;;;;;6.90;2.20;;;;;;;;;;4389404;32;20267;-89
2022/09/16 12:10:53;;;;;;;5.75;2.70;;;;;;;;;;4400438;32;20343;-86
2022/09/16 12:13:26;;;;;;;7.97;2.53;;;;;;;;;;4403313;32;20291;-91
2022/09/16 12:15:58;;;;;;;15.10;2.40;;;;;;;;;;4404904;32;20309;-89
2022/09/16 12:18:31;;;;;;;21.50;2.50;;;;;;;;;;4405167;32;20279;-88
2022/09/16 12:21:07;;;;;;;12.45;2.50;;;;;;;;;;4406435;32;20505;-91
2022/09/16 12:23:40;;;;;;;10.00;2.55;;;;;;;;;;4391387;32;20291;-91
2022/09/16 12:26:14;;;;;;;7.65;2.45;;;;;;;;;;4404724;32;20308;-90
2022/09/16 12:28:47;;;;;;;8.25;2.78;;;;;;;;;;4404908;32;20334;-90
2022/09/16 12:31:19;;;;;;;13.77;2.37;;;;;;;;;;4404793;32;20217;-91
2022/09/16 12:33:52;;;;;;;8.43;2.72;;;;;;;;;;4405326;32;20370;-84
2022/09/16 12:36:27;;;;;;;7.57;2.03;;;;;;;;;;4404006;32;20496;-86
2022/09/16 12:38:54;;;;;;;15.73;2.47;;;;;;;;;;4404322;32;20232;-86
2022/09/16 12:41:59;;;;;;;12.30;4.47;;;;;;;;;;4404265;32;20307;-91
2022/09/16 12:45:01;;;;;;;13.02;3.55;;;;;;;;;;4388815;32;20761;-87
2022/09/16 12:47:45;;;;;;;16.33;2.55;;;;;;;;;;4389022;32;20666;-85
2022/09/16 12:51:03;;;;;;;11.43;2.62;;;;;;;;;;4389342;32;20267;-87
2022/09/16 12:53:55;;;;;;;10.60;2.83;;;;;;;;;;4374077;32;20252;-85
2022/09/16 12:56:44;;;;;;;7.47;2.05;;;;;;;;;;4388656;32;20682;-85
2022/09/16 12:59:37;;;;;;;3.37;1.52;;;;;;;;;;4388763;32;20292;-84
2022/09/16 13:02:12;;;;;;;10.48;2.58;;;;;;;;;;4388536;32;20270;-84
2022/09/16 13:04:43;;;;;;;9.68;3.55;;;;;;;;;;4389061;32;20213;-81
2022/09/16 13:07:21;;;;;;;11.70;3.67;;;;;;;;;;4393043;32;20611;-84
2022/09/16 13:10:00;;;;;;;13.43;3.87;;;;;;;;;;4388795;32;20687;-81
2022/09/16 13:12:29;;;;;;;12.75;3.58;;;;;;;;;;4395352;32;20257;-82
2022/09/16 13:14:59;;;;;;;7.30;2.90;;;;;;;;;;4403718;32;20217;-83
2022/09/16 13:17:31;;;;;;;16.65;2.90;;;;;;;;;;4401070;32;20321;-85
2022/09/16 13:20:06;;;;;;;8.88;2.78;;;;;;;;;;4388714;32;20210;-85
2022/09/16 13:22:38;;;;;;;7.60;2.83;;;;;;;;;;4377289;32;20283;-83
2022/09/16 13:25:19;;;;;;;14.70;3.08;;;;;;;;;;4402769;32;20222;-83
2022/09/16 13:28:00;;;;;;;7.72;2.28;;;;;;;;;;4402937;32;20373;-84
2022/09/16 13:30:38;;;;;;;7.12;2.55;;;;;;;;;;4402297;32;20225;-86
2022/09/16 13:33:25;;;;;;;10.90;3.10;;;;;;;;;;4401457;32;20382;-86
2022/09/16 13:36:16;;;;;;;6.07;2.25;;;;;;;;;;4403297;32;20766;-87
2022/09/16 13:38:48;;;;;;;7.18;2.28;;;;;;;;;;4403652;32;20567;-85
2022/09/16 13:41:31;;;;;;;9.55;2.90;;;;;;;;;;4390447;32;20245;-84
2022/09/16 13:44:01;;;;;;;6.40;2.10;;;;;;;;;;4398185;32;20257;-85
2022/09/16 13:46:32;;;;;;;10.20;2.30;;;;;;;;;;4389003;32;20242;-82
2022/09/16 13:49:16;;;;;;;9.15;2.45;;;;;;;;;;4388957;32;20574;-86
2022/09/16 13:51:45;;;;;;;11.30;2.90;;;;;;;;;;4388924;32;20564;-85
2022/09/16 13:54:28;;;;;;;11.43;2.65;;;;;;;;;;4387937;32;20306;-83
2022/09/16 13:57:21;;;;;;;7.97;2.53;;;;;;;;;;4388495;32;20804;-84
2022/09/16 14:00:05;;;;;;;18.58;3.40;;;;;;;;;;4389245;32;20245;-81
2022/09/16 14:02:42;;;;;;;9.45;2.37;;;;;;;;;;4396362;32;20257;-84
2022/09/16 14:05:27;;;;;;;8.18;2.12;;;;;;;;;;4403450;32;20228;-82
2022/09/16 14:08:01;;;;;;;4.82;1.42;;;;;;;;;;4404327;32;20429;-85
2022/09/16 14:10:35;;;;;;;8.15;2.67;;;;;;;;;;4403904;32;20292;-86
2022/09/16 14:13:09;;;;;;;5.05;2.17;;;;;;;;;;4403723;32;20255;-82
2022/09/16 14:15:40;;;;;;;7.93;1.83;;;;;;;;;;4382596;32;20296;-81
2022/09/16 14:18:11;;;;;;;6.18;2.83;;;;;;;;;;4387460;32;20700;-80
2022/09/16 14:20:38;;;;;;;6.68;2.97;;;;;;;;;;4387341;32;20305;-81
2022/09/16 14:23:19;;;;;;;6.82;1.70;;;;;;;;;;4394451;32;20656;-81
2022/09/16 14:25:46;;;;;;;6.57;2.08;;;;;;;;;;4402304;32;20251;-80
2022/09/16 14:28:19;;;;;;;20.33;2.35;;;;;;;;;;4402083;32;20255;-81
2022/09/16 14:30:49;;;;;;;4.68;1.65;;;;;;;;;;4389444;32;20234;-80
2022/09/16 14:33:18;;;;;;;6.45;1.50;;;;;;;;;;4389793;32;20233;-79
2022/09/16 14:35:48;;;;;;;4.35;1.45;;;;;;;;;;4402556;32;20213;-81
2022/09/16 14:38:18;;;;;;;5.35;1.83;;;;;;;;;;4401596;32;20327;-80
2022/09/16 14:40:49;;;;;;;6.60;2.67;;;;;;;;;;4379954;32;20238;-80
2022/09/16 14:43:20;;;;;;;8.43;3.03;;;;;;;;;;4399367;32;20221;-82
2022/09/16 14:45:52;;;;;;;17.27;2.97;;;;;;;;;;4396192;32;20251;-80
2022/09/16 14:48:24;;;;;;;6.28;1.50;;;;;;;;;;4387586;32;20241;-81
2022/09/16 14:50:51;;;;;;;5.22;1.75;;;;;;;;;;4396939;32;20244;-81
2022/09/16 14:53:27;;;;;;;4.62;1.80;;;;;;;;;;4397315;32;20312;-80
2022/09/16 14:55:55;;;;;;;6.28;1.55;;;;;;;;;;4388966;32;20555;-80
2022/09/16 14:58:25;;;;;;;7.35;1.40;;;;;;;;;;4412138;32;20278;-80
2022/09/16 15:00:57;;;;;;;2.83;1.08;;;;;;;;;;4402292;32;20679;-80
2022/09/16 15:03:29;;;;;;;3.62;1.48;;;;;;;;;;4402393;32;20642;-80
2022/09/16 15:06:03;;;;;;;7.07;2.60;;;;;;;;;;4396303;32;20708;-81
2022/09/16 15:08:37;;;;;;;8.60;2.67;;;;;;;;;;4386700;32;20555;-81
2022/09/16 15:11:11;;;;;;;4.57;2.47;;;;;;;;;;4401613;32;20709;-81